createdAt,value
2023-03-07T00:00:29.524Z,53.15
2023-03-07T00:02:57.692Z,52.40
2023-03-07T00:05:25.750Z,52.79
2023-03-07T00:07:53.780Z,52.26
2023-03-07T00:10:23.169Z,52.65
2023-03-07T00:12:51.333Z,53.28
2023-03-07T00:15:19.509Z,53.17
2023-03-07T00:17:47.560Z,53.51
2023-03-07T00:20:16.449Z,53.68
2023-03-07T00:22:46.875Z,53.10
2023-03-07T00:25:16.386Z,52.33
2023-03-07T00:27:45.815Z,52.33
2023-03-07T00:30:14.280Z,52.58
2023-03-07T00:32:42.421Z,52.46
2023-03-07T00:35:12.240Z,52.39
2023-03-07T00:37:40.395Z,52.77
2023-03-07T00:40:12.760Z,52.59
2023-03-07T00:42:40.770Z,52.93
2023-03-07T00:45:13.520Z,53.35
2023-03-07T00:47:41.559Z,52.63
2023-03-07T00:50:11.123Z,54.25
2023-03-07T00:52:39.345Z,53.62
2023-03-07T00:55:09.259Z,53.20
2023-03-07T00:57:37.484Z,52.54
2023-03-07T01:00:07.390Z,52.86
2023-03-07T01:02:36.811Z,52.82
2023-03-07T01:05:06.379Z,53.30
2023-03-07T01:07:36.067Z,53.58
2023-03-07T01:10:04.530Z,52.64
2023-03-07T01:12:32.616Z,53.34
2023-03-07T01:15:00.811Z,53.35
2023-03-07T01:17:29.038Z,52.98
2023-03-07T01:19:58.543Z,53.98
2023-03-07T01:22:26.788Z,53.59
2023-03-07T01:24:55.037Z,53.01
2023-03-07T01:27:24.604Z,52.73
2023-03-07T01:29:53.030Z,52.88
2023-03-07T01:32:21.173Z,52.87
2023-03-07T01:34:49.159Z,52.94
2023-03-07T01:37:19.152Z,52.38
2023-03-07T01:39:47.780Z,53.46
2023-03-07T01:42:18.278Z,52.66
2023-03-07T01:45:27.435Z,52.32
2023-03-07T01:47:55.619Z,53.16
2023-03-07T01:50:23.983Z,52.75
2023-03-07T01:52:57.761Z,52.42
2023-03-07T01:55:30.698Z,52.65
2023-03-07T01:58:09.597Z,52.31
2023-03-07T02:00:39.216Z,52.27
2023-03-07T02:03:13.982Z,51.80
2023-03-07T02:05:50.947Z,51.55
2023-03-07T02:08:25.385Z,52.07
2023-03-07T02:10:53.614Z,51.59
2023-03-07T02:13:22.177Z,51.51
2023-03-07T02:15:51.067Z,51.82
2023-03-07T02:18:26.169Z,51.41
2023-03-07T02:21:02.933Z,51.70
2023-03-07T02:23:41.556Z,51.33
2023-03-07T02:26:14.719Z,51.07
2023-03-07T02:28:46.907Z,51.81
2023-03-07T02:31:15.921Z,51.88
2023-03-07T02:33:44.167Z,51.20
2023-03-07T02:36:18.229Z,51.99
2023-03-07T02:38:57.935Z,51.86
2023-03-07T02:41:32.951Z,51.91
2023-03-07T02:44:30.862Z,51.91
2023-03-07T02:46:59.157Z,52.26
2023-03-07T02:49:29.220Z,51.60
2023-03-07T02:52:01.118Z,51.27
2023-03-07T02:54:30.431Z,52.03
2023-03-07T02:56:59.205Z,51.90
2023-03-07T02:59:28.615Z,53.00
2023-03-07T03:01:57.554Z,52.79
2023-03-07T03:04:26.059Z,52.95
2023-03-07T03:06:54.125Z,53.74
2023-03-07T03:09:22.605Z,52.51
2023-03-07T03:11:50.658Z,53.20
2023-03-07T03:14:21.992Z,53.49
2023-03-07T03:16:53.502Z,53.77
2023-03-07T03:19:22.532Z,53.03
2023-03-07T03:21:51.020Z,53.43
2023-03-07T03:24:19.916Z,53.12
2023-03-07T03:26:49.171Z,53.11
2023-03-07T03:29:19.448Z,53.34
2023-03-07T03:31:47.586Z,54.19
2023-03-07T03:34:17.074Z,53.41
2023-03-07T03:36:45.184Z,53.27
2023-03-07T03:39:14.596Z,54.24
2023-03-07T03:41:47.474Z,54.50
2023-03-07T03:44:16.914Z,54.42
2023-03-07T03:46:45.128Z,54.47
2023-03-07T03:49:14.272Z,54.97
2023-03-07T03:51:44.910Z,53.93
2023-03-07T03:54:13.196Z,54.08
2023-03-07T03:56:41.795Z,54.28
2023-03-07T03:59:09.955Z,52.79
2023-03-07T04:01:38.046Z,53.79
2023-03-07T04:04:06.612Z,53.01
2023-03-07T04:06:36.428Z,53.45
2023-03-07T04:09:06.264Z,53.21
2023-03-07T04:11:34.516Z,53.46
2023-03-07T04:14:02.951Z,53.50
2023-03-07T04:16:31.919Z,52.18
2023-03-07T04:19:00.809Z,53.01
2023-03-07T04:21:28.990Z,52.90
2023-03-07T04:23:59.418Z,53.14
2023-03-07T04:26:32.518Z,52.57
2023-03-07T04:29:00.759Z,52.24
2023-03-07T04:31:32.871Z,52.61
2023-03-07T04:34:03.567Z,52.51
2023-03-07T04:36:32.254Z,51.97
2023-03-07T04:39:00.284Z,51.83
2023-03-07T04:41:28.926Z,52.79
2023-03-07T04:44:02.870Z,51.35
2023-03-07T04:46:31.190Z,52.12
2023-03-07T04:48:59.743Z,51.83
2023-03-07T04:51:28.094Z,52.85
2023-03-07T04:53:56.187Z,51.85
2023-03-07T04:56:24.488Z,51.62
2023-03-07T04:58:52.746Z,52.10
2023-03-07T05:01:22.228Z,52.35
2023-03-07T05:03:50.505Z,51.84
2023-03-07T05:06:20.354Z,51.81
2023-03-07T05:08:50.871Z,52.47
2023-03-07T05:11:19.347Z,52.36
2023-03-07T05:13:47.652Z,52.55
2023-03-07T05:16:19.413Z,51.66
2023-03-07T05:18:50.476Z,51.94
2023-03-07T05:21:19.147Z,51.80
2023-03-07T05:23:47.226Z,51.84
2023-03-07T05:26:15.369Z,51.79
2023-03-07T05:28:43.731Z,52.00
2023-03-07T05:31:11.775Z,51.41
2023-03-07T05:33:42.632Z,52.00
2023-03-07T05:36:12.914Z,51.61
2023-03-07T05:38:41.298Z,52.31
2023-03-07T05:41:09.631Z,52.41
2023-03-07T05:43:37.872Z,51.65
2023-03-07T05:46:06.532Z,52.00
2023-03-07T05:48:35.192Z,51.58
2023-03-07T05:51:03.958Z,52.39
2023-03-07T05:53:33.671Z,51.53
2023-03-07T05:56:02.494Z,51.42
2023-03-07T05:58:32.076Z,51.24
2023-03-07T06:01:02.991Z,51.12
2023-03-07T06:03:32.103Z,51.45
2023-03-07T06:06:00.429Z,51.91
2023-03-07T06:08:29.362Z,51.26
2023-03-07T06:10:59.019Z,51.29
2023-03-07T06:13:28.072Z,51.95
2023-03-07T06:15:56.865Z,51.24
2023-03-07T06:18:27.223Z,51.81
2023-03-07T06:20:58.698Z,51.45
2023-03-07T06:23:29.596Z,51.12
2023-03-07T06:26:00.384Z,51.56
2023-03-07T06:28:30.269Z,51.45
2023-03-07T06:30:59.867Z,50.48
2023-03-07T06:33:28.077Z,51.54
2023-03-07T06:35:56.877Z,52.15
2023-03-07T06:38:25.206Z,51.67
2023-03-07T06:40:57.248Z,50.61
2023-03-07T06:43:28.101Z,51.19
2023-03-07T06:45:56.966Z,52.34
2023-03-07T06:48:28.047Z,51.58
2023-03-07T06:50:56.422Z,51.34
2023-03-07T06:53:24.603Z,51.90
2023-03-07T06:55:53.576Z,52.03
2023-03-07T06:58:21.749Z,51.75
2023-03-07T07:00:51.485Z,52.12
2023-03-07T07:03:21.428Z,52.23
2023-03-07T07:05:49.607Z,51.36
2023-03-07T07:08:17.981Z,51.49
2023-03-07T07:10:46.110Z,52.69
2023-03-07T07:13:15.076Z,51.84
2023-03-07T07:15:43.241Z,51.88
2023-03-07T07:18:15.007Z,51.54
2023-03-07T07:20:43.850Z,51.05
2023-03-07T07:23:13.425Z,51.06
2023-03-07T07:25:41.461Z,51.10
2023-03-07T07:28:12.301Z,50.89
2023-03-07T07:30:45.132Z,51.50
2023-03-07T07:33:17.090Z,52.11
2023-03-07T07:35:48.454Z,51.27
2023-03-07T07:38:17.030Z,51.48
2023-03-07T07:40:45.954Z,51.19
2023-03-07T07:43:18.188Z,51.00
2023-03-07T07:45:50.858Z,51.74
2023-03-07T07:48:22.924Z,51.14
2023-03-07T07:50:55.982Z,51.29
2023-03-07T07:53:24.366Z,51.14
2023-03-07T07:55:52.451Z,51.13
2023-03-07T07:58:20.509Z,51.38
2023-03-07T08:00:50.045Z,50.62
2023-03-07T08:03:18.116Z,51.33
2023-03-07T08:05:49.131Z,51.21
2023-03-07T08:08:17.820Z,50.74
2023-03-07T08:10:48.590Z,51.29
2023-03-07T08:13:18.623Z,50.47
2023-03-07T08:15:46.778Z,51.04
2023-03-07T08:18:14.913Z,50.89
2023-03-07T08:20:43.009Z,50.70
2023-03-07T08:23:12.419Z,51.11
2023-03-07T08:25:40.800Z,49.73
2023-03-07T08:28:08.949Z,49.53
2023-03-07T08:30:38.183Z,49.83
2023-03-07T08:33:06.235Z,49.79
2023-03-07T08:35:34.411Z,49.82
2023-03-07T08:38:02.530Z,49.96
2023-03-07T08:40:32.564Z,49.93
2023-03-07T08:43:01.995Z,50.32
2023-03-07T08:45:30.162Z,49.74
2023-03-07T08:47:58.650Z,48.48
2023-03-07T08:50:29.287Z,48.49
2023-03-07T08:52:57.992Z,48.62
2023-03-07T08:55:26.294Z,48.15
2023-03-07T08:57:55.926Z,47.81
2023-03-07T09:00:25.135Z,47.15
2023-03-07T09:02:54.276Z,46.77
2023-03-07T09:05:22.321Z,46.77
2023-03-07T09:07:50.368Z,46.66
2023-03-07T09:10:20.929Z,46.73
2023-03-07T09:12:49.898Z,46.65
2023-03-07T09:15:19.561Z,47.03
2023-03-07T09:17:47.661Z,45.92
2023-03-07T09:20:17.199Z,46.19
2023-03-07T09:22:46.713Z,46.43
2023-03-07T09:25:15.523Z,47.38
2023-03-07T09:27:45.518Z,46.42
2023-03-07T09:30:15.185Z,46.74
2023-03-07T09:32:45.137Z,46.07
2023-03-07T09:35:13.337Z,45.64
2023-03-07T09:37:41.713Z,46.57
2023-03-07T09:40:17.299Z,46.27
2023-03-07T09:42:57.901Z,46.68
2023-03-07T09:45:42.351Z,46.28
2023-03-07T09:49:03.574Z,46.15
2023-03-07T09:51:40.180Z,45.08
2023-03-07T09:54:13.700Z,44.54
2023-03-07T09:56:47.309Z,44.96
2023-03-07T09:59:23.846Z,44.98
2023-03-07T10:02:00.114Z,45.03
2023-03-07T10:04:39.910Z,44.56
2023-03-07T10:07:12.562Z,44.54
2023-03-07T10:09:40.662Z,43.95
2023-03-07T10:12:31.702Z,44.12
2023-03-07T10:15:17.834Z,44.85
2023-03-07T10:18:07.779Z,44.36
2023-03-07T10:20:46.587Z,45.96
2023-03-07T10:23:41.182Z,46.31
2023-03-07T10:26:13.368Z,45.57
2023-03-07T10:28:44.234Z,45.45
2023-03-07T10:31:19.016Z,44.61
2023-03-07T10:33:50.216Z,44.40
2023-03-07T10:36:23.091Z,44.49
2023-03-07T10:39:04.333Z,44.30
2023-03-07T10:41:32.614Z,44.94
2023-03-07T10:44:00.809Z,45.10
2023-03-07T10:46:31.506Z,45.15
2023-03-07T10:49:10.674Z,45.08
2023-03-07T10:51:54.185Z,44.53
2023-03-07T10:54:30.165Z,44.23
2023-03-07T10:57:09.259Z,44.42
2023-03-07T10:59:39.480Z,44.17
2023-03-07T11:02:37.174Z,43.93
2023-03-07T11:05:26.506Z,44.06
2023-03-07T11:07:56.040Z,44.30
2023-03-07T11:10:35.490Z,43.98
2023-03-07T11:13:14.886Z,43.94
2023-03-07T11:15:44.890Z,44.02
2023-03-07T11:18:29.741Z,43.42
2023-03-07T11:20:58.978Z,44.62
2023-03-07T11:23:30.769Z,44.95
2023-03-07T11:26:16.271Z,44.39
2023-03-07T11:28:44.772Z,43.98
2023-03-07T11:31:21.337Z,44.21
2023-03-07T11:33:59.479Z,44.11
2023-03-07T11:36:33.406Z,43.86
2023-03-07T11:39:15.259Z,43.71
2023-03-07T11:41:49.360Z,43.97
2023-03-07T11:44:30.265Z,43.53
2023-03-07T11:47:21.274Z,42.90
2023-03-07T11:50:09.173Z,44.01
2023-03-07T11:53:06.250Z,43.34
2023-03-07T11:55:42.737Z,42.89
2023-03-07T11:58:40.429Z,43.08
2023-03-07T12:01:21.853Z,43.81
2023-03-07T12:04:23.457Z,43.54
2023-03-07T12:07:02.979Z,44.08
2023-03-07T12:09:42.255Z,44.63
2023-03-07T12:12:32.395Z,43.58
2023-03-07T12:15:18.671Z,43.16
2023-03-07T12:17:56.246Z,42.72
2023-03-07T12:20:40.826Z,42.98
2023-03-07T12:23:17.192Z,43.41
2023-03-07T12:25:49.543Z,43.10
2023-03-07T12:28:28.617Z,42.46
2023-03-07T12:31:09.295Z,42.67
2023-03-07T12:33:54.886Z,43.04
2023-03-07T12:36:31.449Z,42.50
2023-03-07T12:39:06.618Z,42.30
2023-03-07T12:41:48.972Z,42.58
2023-03-07T12:44:35.388Z,43.06
2023-03-07T12:47:15.762Z,42.28
2023-03-07T12:49:54.350Z,42.67
2023-03-07T12:52:35.801Z,42.40
2023-03-07T12:55:17.585Z,41.94
2023-03-07T12:57:52.454Z,42.13
2023-03-07T13:00:23.531Z,42.42
2023-03-07T13:03:01.157Z,41.51
2023-03-07T13:05:30.936Z,41.59
2023-03-07T13:07:59.451Z,40.60
2023-03-07T13:10:28.160Z,41.27
2023-03-07T13:12:56.245Z,41.41
2023-03-07T13:16:07.363Z,41.23
2023-03-07T13:18:35.395Z,41.08
2023-03-07T13:21:32.524Z,40.97
2023-03-07T13:24:35.862Z,40.96
2023-03-07T13:27:05.674Z,41.68
2023-03-07T13:30:19.171Z,41.14
2023-03-07T13:33:00.859Z,41.50
2023-03-07T13:35:57.767Z,41.41
2023-03-07T13:38:35.838Z,41.86
2023-03-07T13:41:05.328Z,42.03
2023-03-07T13:44:02.646Z,41.42
2023-03-07T13:47:02.528Z,42.68
2023-03-07T13:49:47.979Z,42.71
2023-03-07T13:52:49.980Z,42.38
2023-03-07T13:55:46.424Z,41.84
2023-03-07T13:58:26.024Z,41.29
2023-03-07T14:00:58.847Z,40.82
2023-03-07T14:03:32.943Z,41.27
2023-03-07T14:06:10.199Z,41.85
2023-03-07T14:08:39.130Z,41.85
2023-03-07T14:11:15.734Z,40.96
2023-03-07T14:14:26.240Z,41.08
2023-03-07T14:17:17.751Z,40.02
2023-03-07T14:19:59.944Z,40.47
2023-03-07T14:22:56.144Z,39.96
2023-03-07T14:25:44.248Z,40.93
2023-03-07T14:28:26.845Z,39.95
2023-03-07T14:30:58.843Z,39.69
2023-03-07T14:33:35.983Z,39.77
2023-03-07T14:36:16.074Z,38.90
2023-03-07T14:38:48.764Z,39.62
2023-03-07T14:41:36.582Z,39.61
2023-03-07T14:44:27.935Z,40.51
2023-03-07T14:47:10.782Z,41.11
2023-03-07T14:49:51.905Z,41.30
2023-03-07T14:52:30.904Z,41.80
2023-03-07T14:55:03.850Z,41.58
2023-03-07T14:57:35.690Z,41.58
2023-03-07T15:00:11.987Z,41.28
2023-03-07T15:02:48.562Z,41.07
2023-03-07T15:05:18.683Z,41.17
2023-03-07T15:07:48.028Z,41.31
2023-03-07T15:10:20.941Z,41.29
2023-03-07T15:12:54.247Z,41.14
2023-03-07T15:15:31.285Z,41.26
2023-03-07T15:18:06.886Z,41.56
2023-03-07T15:20:35.386Z,41.06
2023-03-07T15:23:07.576Z,41.39
2023-03-07T15:25:39.123Z,41.97
2023-03-07T15:28:17.845Z,41.68
2023-03-07T15:30:52.880Z,42.15
2023-03-07T15:33:26.035Z,42.26
2023-03-07T15:36:27.561Z,42.73
2023-03-07T15:39:27.616Z,42.62
2023-03-07T15:42:06.801Z,42.47
2023-03-07T15:44:36.397Z,42.59
2023-03-07T15:47:15.061Z,42.23
2023-03-07T15:49:47.263Z,42.33
2023-03-07T15:52:28.378Z,42.36
2023-03-07T15:54:59.352Z,42.42
2023-03-07T15:57:33.765Z,42.00
2023-03-07T16:00:06.890Z,42.44
2023-03-07T16:02:43.536Z,42.95
2023-03-07T16:05:36.762Z,42.75
2023-03-07T16:08:14.095Z,43.11
2023-03-07T16:10:52.120Z,43.23
2023-03-07T16:13:25.894Z,43.55
2023-03-07T16:16:03.121Z,43.84
2023-03-07T16:18:32.930Z,43.94
2023-03-07T16:21:00.994Z,42.89
2023-03-07T16:23:31.404Z,43.60
2023-03-07T16:26:02.769Z,44.11
2023-03-07T16:28:32.949Z,43.76
2023-03-07T16:31:01.081Z,43.52
2023-03-07T16:33:29.111Z,43.44
2023-03-07T16:35:57.277Z,42.99
2023-03-07T16:38:25.454Z,42.73
2023-03-07T16:40:53.553Z,43.33
2023-03-07T16:43:35.079Z,42.85
2023-03-07T16:46:05.793Z,43.47
2023-03-07T16:48:38.893Z,43.10
2023-03-07T16:51:10.073Z,43.01
2023-03-07T16:53:38.207Z,43.45
2023-03-07T16:56:07.027Z,43.60
2023-03-07T16:58:39.795Z,43.50
2023-03-07T17:01:08.029Z,43.37
2023-03-07T17:03:36.194Z,43.06
2023-03-07T17:06:04.607Z,43.77
2023-03-07T17:08:32.696Z,43.46
2023-03-07T17:11:00.785Z,43.53
2023-03-07T17:13:29.712Z,43.92
2023-03-07T17:15:59.705Z,43.56
2023-03-07T17:18:33.806Z,43.94
2023-03-07T17:21:01.881Z,44.10
2023-03-07T17:23:29.937Z,44.16
2023-03-07T17:25:58.121Z,44.04
2023-03-07T17:28:26.711Z,44.47
2023-03-07T17:30:54.897Z,44.31
2023-03-07T17:33:26.228Z,43.78
2023-03-07T17:35:57.063Z,43.82
2023-03-07T17:38:25.190Z,44.40
2023-03-07T17:40:55.987Z,44.28
2023-03-07T17:43:24.492Z,43.79
2023-03-07T17:45:52.564Z,43.98
2023-03-07T17:48:20.713Z,44.49
2023-03-07T17:50:50.113Z,44.54
2023-03-07T17:53:18.255Z,44.21
2023-03-07T17:55:46.375Z,43.93
2023-03-07T17:58:14.370Z,44.13
2023-03-07T18:00:42.447Z,44.00
2023-03-07T18:03:14.572Z,44.61
2023-03-07T18:05:42.758Z,44.77
2023-03-07T18:08:12.591Z,44.28
2023-03-07T18:10:40.633Z,44.72
2023-03-07T18:13:14.882Z,44.39
2023-03-07T18:15:46.983Z,44.48
2023-03-07T18:18:16.249Z,44.78
2023-03-07T18:20:44.560Z,44.90
2023-03-07T18:23:13.998Z,44.20
2023-03-07T18:25:42.099Z,44.22
2023-03-07T18:28:10.311Z,44.53
2023-03-07T18:30:38.355Z,44.26
2023-03-07T18:33:06.390Z,44.70
2023-03-07T18:35:37.899Z,45.99
2023-03-07T18:38:05.984Z,46.02
2023-03-07T18:40:35.372Z,45.26
2023-03-07T18:43:03.514Z,44.60
2023-03-07T18:45:31.952Z,45.34
2023-03-07T18:48:00.675Z,45.94
2023-03-07T18:50:29.642Z,45.57
2023-03-07T18:52:57.839Z,45.08
2023-03-07T18:55:26.179Z,45.47
2023-03-07T18:57:55.658Z,44.87
2023-03-07T19:00:24.557Z,45.74
2023-03-07T19:02:52.575Z,45.61
2023-03-07T19:05:20.777Z,45.72
2023-03-07T19:07:48.798Z,45.05
2023-03-07T19:10:17.324Z,44.73
2023-03-07T19:12:45.694Z,45.23
2023-03-07T19:15:15.123Z,45.52
2023-03-07T19:17:43.149Z,45.26
2023-03-07T19:20:13.374Z,44.65
2023-03-07T19:22:41.983Z,44.70
2023-03-07T19:25:10.919Z,44.69
2023-03-07T19:27:39.019Z,44.24
2023-03-07T19:30:11.244Z,44.32
2023-03-07T19:32:40.757Z,44.54
2023-03-07T19:35:09.694Z,44.58
2023-03-07T19:37:37.911Z,44.40
2023-03-07T19:40:11.458Z,44.57
2023-03-07T19:42:39.546Z,44.84
2023-03-07T19:45:09.374Z,44.32
2023-03-07T19:47:37.462Z,44.15
2023-03-07T19:50:31.523Z,44.74
2023-03-07T19:53:00.080Z,44.02
2023-03-07T19:55:31.157Z,44.14
2023-03-07T19:57:59.566Z,44.43
2023-03-07T20:00:27.847Z,44.37
2023-03-07T20:02:55.826Z,43.21
2023-03-07T20:05:24.747Z,44.37
2023-03-07T20:07:54.150Z,43.51
2023-03-07T20:10:22.742Z,43.39
2023-03-07T20:12:52.896Z,42.79
2023-03-07T20:15:21.744Z,42.71
2023-03-07T20:17:49.962Z,42.88
2023-03-07T20:20:19.008Z,43.19
2023-03-07T20:22:47.115Z,42.97
2023-03-07T20:25:16.773Z,42.62
2023-03-07T20:27:44.945Z,43.34
2023-03-07T20:30:14.286Z,43.70
2023-03-07T20:32:42.501Z,43.60
2023-03-07T20:35:11.386Z,43.51
2023-03-07T20:37:39.930Z,42.96
2023-03-07T20:40:10.312Z,43.02
2023-03-07T20:42:39.805Z,42.78
2023-03-07T20:45:09.196Z,42.84
2023-03-07T20:47:38.509Z,43.19
2023-03-07T20:50:07.971Z,43.10
2023-03-07T20:52:37.248Z,43.02
2023-03-07T20:55:06.554Z,43.35
2023-03-07T20:57:34.619Z,42.90
2023-03-07T21:00:05.771Z,43.35
2023-03-07T21:02:36.258Z,42.82
2023-03-07T21:05:30.071Z,42.76
2023-03-07T21:07:58.146Z,43.00
2023-03-07T21:10:26.196Z,43.00
2023-03-07T21:12:54.267Z,43.52
2023-03-07T21:15:23.708Z,42.96
2023-03-07T21:17:52.776Z,42.84
2023-03-07T21:20:22.736Z,42.80
2023-03-07T21:22:50.808Z,42.49
2023-03-07T21:25:18.907Z,42.33
2023-03-07T21:27:47.131Z,42.68
2023-03-07T21:30:15.501Z,42.74
2023-03-07T21:32:45.055Z,42.42
2023-03-07T21:35:13.770Z,42.58
2023-03-07T21:37:41.816Z,42.93
2023-03-07T21:40:12.094Z,42.58
2023-03-07T21:42:40.253Z,42.58
2023-03-07T21:45:10.792Z,42.78
2023-03-07T21:47:39.171Z,42.56
2023-03-07T21:50:10.437Z,43.25
2023-03-07T21:52:38.482Z,42.54
2023-03-07T21:55:08.194Z,42.40
2023-03-07T21:57:36.838Z,42.90
2023-03-07T22:00:08.351Z,43.29
2023-03-07T22:02:37.388Z,42.93
2023-03-07T22:05:06.341Z,43.05
2023-03-07T22:07:35.806Z,43.10
2023-03-07T22:10:03.934Z,43.15
2023-03-07T22:12:32.814Z,42.56
2023-03-07T22:15:00.949Z,42.63
2023-03-07T22:17:29.210Z,42.76
2023-03-07T22:19:57.240Z,42.88
2023-03-07T22:22:25.282Z,42.44
2023-03-07T22:24:54.670Z,43.33
2023-03-07T22:27:22.834Z,43.45
2023-03-07T22:29:50.950Z,42.26
2023-03-07T22:32:19.054Z,43.09
2023-03-07T22:34:47.129Z,43.24
2023-03-07T22:37:15.343Z,43.01
2023-03-07T22:39:43.401Z,42.06
2023-03-07T22:42:12.792Z,43.23
2023-03-07T22:44:40.887Z,42.71
2023-03-07T22:47:09.250Z,43.47
2023-03-07T22:49:37.316Z,42.44
2023-03-07T22:52:06.047Z,43.20
2023-03-07T22:54:39.088Z,42.86
2023-03-07T22:57:07.266Z,43.15
2023-03-07T22:59:36.829Z,42.98
2023-03-07T23:02:04.947Z,42.99
2023-03-07T23:04:33.061Z,42.70
2023-03-07T23:07:01.346Z,42.72
2023-03-07T23:09:29.384Z,42.93
2023-03-07T23:11:57.437Z,43.56
2023-03-07T23:14:25.535Z,43.26
2023-03-07T23:16:55.085Z,43.70
2023-03-07T23:19:23.129Z,42.87
2023-03-07T23:21:51.174Z,43.40
2023-03-07T23:24:19.253Z,43.28
2023-03-07T23:26:47.654Z,43.38
2023-03-07T23:29:15.996Z,42.91
2023-03-07T23:31:45.201Z,43.55
2023-03-07T23:34:18.942Z,42.92
2023-03-07T23:36:47.748Z,43.36
2023-03-07T23:39:17.453Z,43.64
2023-03-07T23:41:46.183Z,43.47
2023-03-07T23:44:14.442Z,44.31
2023-03-07T23:46:42.499Z,43.67
2023-03-07T23:49:11.263Z,44.10
2023-03-07T23:51:40.637Z,44.20
2023-03-07T23:54:09.024Z,43.63
2023-03-07T23:56:37.068Z,43.28
2023-03-07T23:59:05.284Z,43.64
